createdAt,value
2018-12-02T00:01:55.564Z,100272.78
2018-12-02T00:05:59.059Z,100262.86
2018-12-02T00:10:04.326Z,100263.56
2018-12-02T00:14:07.795Z,100261.75
2018-12-02T00:18:12.806Z,100256.91
2018-12-02T00:22:16.331Z,100251.73
2018-12-02T00:26:19.837Z,100254.04
2018-12-02T00:30:25.244Z,100254.17
2018-12-02T00:34:28.691Z,100245.17
2018-12-02T00:38:32.164Z,100246.47
2018-12-02T00:42:35.660Z,100246.09
2018-12-02T00:46:39.083Z,100250.05
2018-12-02T00:50:42.568Z,100256.66
2018-12-02T00:54:46.029Z,100263.08
2018-12-02T00:58:49.530Z,100255.80
2018-12-02T01:02:53.076Z,100256.08
2018-12-02T01:06:56.601Z,100251.42
2018-12-02T01:11:00.100Z,100252.70
2018-12-02T01:15:04.331Z,100263.17
2018-12-02T01:19:07.782Z,100262.30
2018-12-02T01:23:11.249Z,100251.69
2018-12-02T01:27:14.731Z,100230.59
2018-12-02T01:31:18.194Z,100227.10
2018-12-02T01:35:21.643Z,100231.20
2018-12-02T01:39:25.159Z,100232.17
2018-12-02T01:43:28.683Z,100225.53
2018-12-02T01:47:32.135Z,100210.32
2018-12-02T01:51:35.673Z,100205.66
2018-12-02T01:55:39.181Z,100200.18
2018-12-02T01:59:42.747Z,100207.32
2018-12-02T02:03:46.263Z,100212.82
2018-12-02T02:07:49.767Z,100210.70
2018-12-02T02:11:53.272Z,100207.94
2018-12-02T02:15:57.167Z,100196.13
2018-12-02T02:20:00.681Z,100185.06
2018-12-02T02:24:05.003Z,100185.24
2018-12-02T02:28:08.487Z,100183.03
2018-12-02T02:32:11.981Z,100176.58
2018-12-02T02:36:15.527Z,100179.66
2018-12-02T02:40:21.156Z,100175.14
2018-12-02T02:44:24.599Z,100165.95
2018-12-02T02:48:28.128Z,100161.38
2018-12-02T02:52:31.664Z,100159.21
2018-12-02T02:56:35.221Z,100152.07
2018-12-02T03:00:38.721Z,100147.64
2018-12-02T03:04:42.191Z,100138.52
2018-12-02T03:08:45.737Z,100140.12
2018-12-02T03:12:51.292Z,100141.01
2018-12-02T03:16:54.803Z,100150.45
2018-12-02T03:20:58.270Z,100148.84
2018-12-02T03:25:01.753Z,100149.40
2018-12-02T03:29:05.523Z,100136.57
2018-12-02T03:33:08.971Z,100140.86
2018-12-02T03:37:12.431Z,100143.44
2018-12-02T03:41:15.908Z,100132.23
2018-12-02T03:45:20.341Z,100139.16
2018-12-02T03:49:23.884Z,100134.48
2018-12-02T03:53:27.324Z,100132.37
2018-12-02T03:57:30.835Z,100137.25
2018-12-02T04:01:34.356Z,100131.98
2018-12-02T04:05:37.820Z,100126.77
2018-12-02T04:09:41.406Z,100124.82
2018-12-02T04:13:44.912Z,100110.94
2018-12-02T04:17:48.377Z,100113.26
2018-12-02T04:21:52.154Z,100091.54
2018-12-02T04:25:55.567Z,100091.86
2018-12-02T04:29:59.065Z,100078.77
2018-12-02T04:34:02.601Z,100077.81
2018-12-02T04:38:06.159Z,100087.47
2018-12-02T04:42:09.661Z,100097.56
2018-12-02T04:46:13.211Z,100097.39
2018-12-02T04:50:21.493Z,100100.71
2018-12-02T04:54:24.986Z,100100.94
2018-12-02T04:58:28.500Z,100113.94
2018-12-02T05:02:31.961Z,100097.48
2018-12-02T05:06:35.490Z,100099.65
2018-12-02T05:10:39.062Z,100075.70
2018-12-02T05:14:42.553Z,100064.95
2018-12-02T05:18:46.061Z,100065.52
2018-12-02T05:22:49.616Z,100064.08
2018-12-02T05:26:53.110Z,100066.66
2018-12-02T05:30:56.668Z,100064.08
2018-12-02T05:35:00.143Z,100053.75
2018-12-02T05:39:04.642Z,100044.38
2018-12-02T05:43:08.116Z,100035.67
2018-12-02T05:47:11.567Z,100029.67
2018-12-02T05:51:15.440Z,100025.34
2018-12-02T05:55:22.534Z,100024.59
2018-12-02T05:59:26.056Z,100003.52
2018-12-02T06:03:29.518Z,99996.44
2018-12-02T06:07:33.306Z,100009.27
2018-12-02T06:11:37.017Z,99994.65
2018-12-02T06:15:40.867Z,99998.14
2018-12-02T06:19:44.320Z,100005.89
2018-12-02T06:23:47.818Z,99999.18
2018-12-02T06:27:51.390Z,100003.84
2018-12-02T06:31:54.945Z,100001.77
2018-12-02T06:35:58.459Z,100000.14
2018-12-02T06:40:01.922Z,99999.48
2018-12-02T06:44:05.652Z,100002.81
2018-12-02T06:48:09.144Z,99988.86
2018-12-02T06:52:12.607Z,99986.74
2018-12-02T06:56:21.975Z,100000.16
2018-12-02T07:00:43.064Z,100003.38
2018-12-02T07:04:46.572Z,100007.75
2018-12-02T07:08:50.011Z,100002.39
2018-12-02T07:12:53.581Z,100001.10
2018-12-02T07:16:57.029Z,100004.27
2018-12-02T07:21:05.250Z,100008.55
2018-12-02T07:25:14.829Z,99992.06
2018-12-02T07:29:18.279Z,99990.27
2018-12-02T07:33:21.780Z,99977.92
2018-12-02T07:37:25.222Z,99966.70
2018-12-02T07:41:28.722Z,99971.05
2018-12-02T07:45:32.265Z,99971.13
2018-12-02T07:49:35.825Z,99977.17
2018-12-02T07:53:39.436Z,99987.84
2018-12-02T07:57:42.968Z,99982.09
2018-12-02T08:01:46.450Z,99987.42
2018-12-02T08:05:49.986Z,99977.87
2018-12-02T08:09:53.487Z,99968.98
2018-12-02T08:13:57.022Z,99960.53
2018-12-02T08:18:00.487Z,99973.45
2018-12-02T08:22:04.396Z,99983.13
2018-12-02T08:26:07.955Z,99991.67
2018-12-02T08:30:13.907Z,99985.69
2018-12-02T08:34:17.435Z,99972.27
2018-12-02T08:38:20.963Z,99974.17
2018-12-02T08:42:24.512Z,99963.27
2018-12-02T08:46:28.063Z,99956.13
2018-12-02T08:50:31.592Z,99966.79
2018-12-02T08:54:35.052Z,99955.53
2018-12-02T08:58:38.539Z,99958.95
2018-12-02T09:02:42.460Z,99961.61
2018-12-02T09:06:46.002Z,99953.44
2018-12-02T09:10:49.490Z,99969.76
2018-12-02T09:14:53.000Z,99965.08
2018-12-02T09:18:56.459Z,99959.07
2018-12-02T09:22:59.972Z,99965.88
2018-12-02T09:27:04.033Z,99969.50
2018-12-02T09:31:07.537Z,99953.95
2018-12-02T09:35:11.311Z,99945.66
2018-12-02T09:39:18.368Z,99942.50
2018-12-02T09:43:18.474Z,99929.41
2018-12-02T09:47:22.012Z,99918.95
2018-12-02T09:51:25.501Z,99906.95
2018-12-02T09:55:32.691Z,99901.85
2018-12-02T09:59:36.209Z,99893.50
2018-12-02T10:03:39.671Z,99878.42
2018-12-02T10:07:43.599Z,99887.07
2018-12-02T10:11:47.114Z,99878.72
2018-12-02T10:15:50.798Z,99889.69
2018-12-02T10:19:54.240Z,99879.27
2018-12-02T10:23:57.687Z,99862.58
2018-12-02T10:28:01.363Z,99854.92
2018-12-02T10:32:04.818Z,99864.82
2018-12-02T10:36:08.361Z,99851.52
2018-12-02T10:40:13.832Z,99838.92
2018-12-02T10:44:17.331Z,99836.92
2018-12-02T10:48:20.776Z,99832.66
2018-12-02T10:52:24.741Z,99835.31
2018-12-02T10:56:28.257Z,99830.24
2018-12-02T11:00:36.888Z,99829.09
2018-12-02T11:04:40.483Z,99811.98
2018-12-02T11:08:44.011Z,99811.17
2018-12-02T11:12:47.473Z,99801.09
2018-12-02T11:16:50.962Z,99796.92
2018-12-02T11:20:54.440Z,99793.49
2018-12-02T11:24:58.119Z,99770.31
2018-12-02T11:29:02.880Z,99773.98
2018-12-02T11:33:06.675Z,99771.19
2018-12-02T11:37:10.246Z,99777.66
2018-12-02T11:41:13.751Z,99780.45
2018-12-02T11:45:17.284Z,99765.85
2018-12-02T11:49:20.755Z,99739.06
2018-12-02T11:53:24.286Z,99734.89
2018-12-02T11:57:27.812Z,99744.97
2018-12-02T12:01:31.309Z,99732.47
2018-12-02T12:05:35.089Z,99742.83
2018-12-02T12:09:38.799Z,99721.29
2018-12-02T12:13:42.988Z,99712.35
2018-12-02T12:17:48.992Z,99702.12
2018-12-02T12:21:52.725Z,99707.40
2018-12-02T12:25:56.275Z,99704.80
2018-12-02T12:29:59.736Z,99705.36
2018-12-02T12:34:03.208Z,99696.22
2018-12-02T12:38:07.331Z,99711.90
2018-12-02T12:42:10.800Z,99701.66
2018-12-02T12:46:14.278Z,99682.67
2018-12-02T12:50:17.816Z,99684.22
2018-12-02T12:54:21.286Z,99674.01
2018-12-02T12:58:24.793Z,99659.81
2018-12-02T13:02:28.308Z,99652.64
2018-12-02T13:06:31.802Z,99629.45
2018-12-02T13:10:35.213Z,99608.77
2018-12-02T13:14:39.040Z,99595.45
2018-12-02T13:18:42.535Z,99608.33
2018-12-02T13:22:46.995Z,99635.28
2018-12-02T13:26:50.517Z,99616.80
2018-12-02T13:30:53.951Z,99639.05
2018-12-02T13:34:57.454Z,99639.73
2018-12-02T13:39:01.374Z,99631.71
2018-12-02T13:43:15.856Z,99639.19
2018-12-02T13:47:19.345Z,99633.42
2018-12-02T13:51:22.883Z,99633.52
2018-12-02T13:55:28.907Z,99611.15
2018-12-02T13:59:32.368Z,99615.47
2018-12-02T14:03:35.949Z,99623.79
2018-12-02T14:07:39.489Z,99618.55
2018-12-02T14:11:42.972Z,99612.11
2018-12-02T14:15:52.036Z,99615.41
2018-12-02T14:19:55.575Z,99629.67
2018-12-02T14:23:59.027Z,99640.06
2018-12-02T14:28:02.512Z,99662.17
2018-12-02T14:36:09.695Z,99667.84
2018-12-02T14:40:14.498Z,99661.36
2018-12-02T14:44:18.052Z,99659.09
2018-12-02T14:48:21.560Z,99651.16
2018-12-02T14:52:25.103Z,99638.89
2018-12-02T14:56:28.733Z,99609.84
2018-12-02T15:00:32.235Z,99583.64
2018-12-02T15:04:36.006Z,99550.92
2018-12-02T15:08:39.775Z,99529.55
2018-12-02T15:12:43.791Z,99516.89
2018-12-02T15:16:47.232Z,99511.66
2018-12-02T15:20:51.116Z,99526.64
2018-12-02T15:24:54.567Z,99526.28
2018-12-02T15:28:58.068Z,99542.28
2018-12-02T15:33:01.567Z,99558.69
2018-12-02T15:37:05.412Z,99557.03
2018-12-02T15:41:08.946Z,99556.30
2018-12-02T15:45:13.466Z,99527.41
2018-12-02T15:49:16.981Z,99519.13
2018-12-02T15:53:20.477Z,99552.27
2018-12-02T15:57:23.968Z,99563.52
2018-12-02T16:01:27.443Z,99577.23
2018-12-02T16:05:30.951Z,99611.87
2018-12-02T16:09:34.406Z,99632.20
2018-12-02T16:13:37.937Z,99631.27
2018-12-02T16:17:41.498Z,99633.42
2018-12-02T16:21:45.053Z,99619.36
2018-12-02T16:25:48.507Z,99606.50
2018-12-02T16:29:51.926Z,99595.64
2018-12-02T16:33:55.438Z,99605.26
2018-12-02T16:37:58.882Z,99581.42
2018-12-02T16:42:03.448Z,99568.33
2018-12-02T16:46:07.012Z,99554.91
2018-12-02T16:50:18.959Z,99563.40
2018-12-02T16:54:22.540Z,99610.95
2018-12-02T16:59:30.384Z,99644.88
2018-12-02T17:03:33.908Z,99643.52
2018-12-02T17:07:37.415Z,99628.07
2018-12-02T17:11:41.780Z,99620.28
2018-12-02T17:15:45.244Z,99613.44
2018-12-02T17:19:48.709Z,99605.31
2018-12-02T17:23:53.930Z,99598.89
2018-12-02T17:27:57.456Z,99605.37
2018-12-02T17:32:08.779Z,99591.13
2018-12-02T17:36:12.215Z,99595.87
2018-12-02T17:40:19.900Z,99597.59
2018-12-02T17:44:23.373Z,99593.70
2018-12-02T17:48:27.902Z,99572.94
2018-12-02T17:52:31.332Z,99552.94
2018-12-02T17:56:34.791Z,99525.08
2018-12-02T18:00:38.347Z,99546.64
2018-12-02T18:04:41.856Z,99566.95
2018-12-02T18:08:45.568Z,99566.22
2018-12-02T18:12:49.119Z,99562.81
2018-12-02T18:16:52.800Z,99560.66
2018-12-02T18:20:56.835Z,99570.36
2018-12-02T18:25:03.485Z,99554.45
2018-12-02T18:29:07.154Z,99537.30
2018-12-02T18:33:10.853Z,99559.48
2018-12-02T18:37:15.169Z,99555.25
2018-12-02T18:41:21.772Z,99558.87
2018-12-02T18:45:25.866Z,99566.22
2018-12-02T18:49:30.195Z,99559.25
2018-12-02T18:53:34.691Z,99556.12
2018-12-02T18:57:38.396Z,99542.63
2018-12-02T19:01:42.027Z,99538.74
2018-12-02T19:05:46.057Z,99528.25
2018-12-02T19:09:49.622Z,99534.30
2018-12-02T19:13:53.334Z,99538.83
2018-12-02T19:17:57.017Z,99532.59
2018-12-02T19:22:01.001Z,99535.21
2018-12-02T19:26:05.128Z,99537.05
2018-12-02T19:38:48.054Z,99533.12
2018-12-02T19:42:51.734Z,99542.09
2018-12-02T19:46:55.490Z,99551.17
2018-12-02T19:50:59.898Z,99542.55
2018-12-02T19:55:03.910Z,99549.88
2018-12-02T19:59:07.624Z,99547.73
2018-12-02T20:03:13.241Z,99548.21
2018-12-02T20:07:17.239Z,99543.95
2018-12-02T20:11:21.088Z,99546.09
2018-12-02T20:15:25.363Z,99548.70
2018-12-02T20:19:34.805Z,99542.97
2018-12-02T20:23:43.624Z,99539.08
2018-12-02T20:27:47.534Z,99529.94
2018-12-02T20:31:51.181Z,99526.04
2018-12-02T20:35:55.973Z,99540.58
2018-12-02T20:39:59.722Z,99540.52
2018-12-02T20:44:03.388Z,99538.41
2018-12-02T20:48:07.211Z,99516.18
2018-12-02T20:52:11.724Z,99530.93
2018-12-02T20:56:15.234Z,99534.88
2018-12-02T21:00:19.737Z,99526.56
2018-12-02T21:04:23.469Z,99524.28
2018-12-02T21:08:27.170Z,99508.66
2018-12-02T21:12:31.148Z,99503.15
2018-12-02T21:16:34.717Z,99503.08
2018-12-02T21:20:38.630Z,99493.08
2018-12-02T21:24:42.159Z,99504.81
2018-12-02T21:28:45.699Z,99503.20
2018-12-02T21:32:49.227Z,99492.98
2018-12-02T21:36:52.759Z,99488.78
2018-12-02T21:40:56.320Z,99491.48
2018-12-02T21:44:59.905Z,99489.70
2018-12-02T21:49:03.466Z,99504.41
2018-12-02T21:53:07.015Z,99494.45
2018-12-02T21:57:10.555Z,99498.39
2018-12-02T22:01:14.135Z,99492.83
2018-12-02T22:05:17.698Z,99480.36
2018-12-02T22:09:21.197Z,99475.54
2018-12-02T22:13:24.757Z,99471.16
2018-12-02T22:17:28.407Z,99477.70
2018-12-02T22:21:31.865Z,99484.25
2018-12-02T22:25:35.526Z,99490.73
2018-12-02T22:29:39.158Z,99493.07
2018-12-02T22:33:42.825Z,99497.81
2018-12-02T22:37:47.337Z,99486.58
2018-12-02T22:41:52.715Z,99485.77
2018-12-02T22:45:56.233Z,99468.30
2018-12-02T22:49:59.876Z,99468.73
2018-12-02T22:54:03.462Z,99473.10
2018-12-02T22:58:07.944Z,99473.49
2018-12-02T23:02:16.827Z,99468.23
2018-12-02T23:06:20.427Z,99466.56
2018-12-02T23:10:24.058Z,99462.30
2018-12-02T23:14:27.657Z,99455.48
2018-12-02T23:18:31.261Z,99461.10
2018-12-02T23:22:34.967Z,99452.06
2018-12-02T23:26:39.697Z,99447.70
2018-12-02T23:30:45.642Z,99429.34
2018-12-02T23:34:53.315Z,99434.44
2018-12-02T23:38:56.907Z,99429.14
2018-12-02T23:43:00.713Z,99427.31
2018-12-02T23:47:04.281Z,99447.25
2018-12-02T23:51:08.512Z,99442.33
2018-12-02T23:55:16.958Z,99446.70
2018-12-02T23:59:21.059Z,99445.08
